YSNF Airport Information

Runway Information
Runway 04 Length 4708 ft width 98 ft
Elevation 325 ft Threshold 0 ft Heading 50
Runway 22 Length 4708 ft Width 98 ft
Elevation 367 ft Threshold 0 ft Heading 230
Runway 11 Length 6398 ft width 150 ft
Elevation 321 ft Threshold 197 ft Heading 122
Runway 29 Length 6398 ft Width 150 ft
Elevation 366 ft Threshold 197 ft Heading 302
Airport Frequencies
Type CTAF Name CTAF Frequency 118.1 MHZ
Type FSS Name AUCKLAND R Frequency 346.7 MHZ
Airport Navaids
Type VOR-DME Name Norfolk Island Frequency 112400 KHZ
Type NDB Name Norfolk Island Frequency 260 KHZ
Airport Weather Information & NOTAM
ADDS - METARS form results

(0239 UTC 05 December 2021)
Data provider http://aviationweather.gov/metar/data/
 
METAR text: YSNF 050230Z AUTO 02009KT 9999 // BKN010 24/21 Q1014 RF00.0/000.0
Conditions at: YSNF (NORFOLK ISLAND A, AU) observed 0230 UTC 05 December 2021
Temperature: 24.0°C (75°F)
Dewpoint: 21.0°C (70°F) [RH = 83%]
Pressure (altimeter): 29.94 inches Hg (1014.0 mb)
Winds: from the NNE (20 degrees) at 10 MPH (9 knots; 4.6 m/s)
Visibility: 6 or more miles (10+ km)
Ceiling: 1000 feet AGL
Clouds: broken clouds at 1000 feet AGL
Weather: no significant weather observed at this time

METAR text: YSNF 050200Z AUTO 04009KT 9999 // OVC010 25/22 Q1014
Conditions at: YSNF (NORFOLK ISLAND A, AU) observed 0200 UTC 05 December 2021
Temperature: 25.0°C (77°F)
Dewpoint: 22.0°C (72°F) [RH = 83%]
Pressure (altimeter): 29.94 inches Hg (1014.0 mb)
Winds: from the NE (40 degrees) at 10 MPH (9 knots; 4.6 m/s)
Visibility: 6 or more miles (10+ km)
Ceiling: 1000 feet AGL
Clouds: overcast cloud deck at 1000 feet AGL
Weather: no significant weather observed at this time

Forecast for: YSNF (NORFOLK ISLAND A, AU)
Text: TAF YSNF 042342Z 0500/0600 05012KT 9999 BKN008
Forecast period: 0000 to 1000 UTC 05 December 2021
Forecast type: FROM: standard forecast or significant change
Winds: from the NE (50 degrees) at 14 MPH (12 knots; 6.2 m/s)
Visibility: 6 or more miles (10+ km)
Ceiling: 800 feet AGL
Clouds: broken clouds at 800 feet AGL
Weather: no significant weather forecast for this period
Text: FM051000 07010KT 9999 BKN006
Forecast period: 1000 UTC 05 December 2021 to 0000 UTC 06 December 2021
Forecast type: FROM: standard forecast or significant change
Winds: from the ENE (70 degrees) at 12 MPH (10 knots; 5.1 m/s)
Visibility: 6 or more miles (10+ km)
Ceiling: 600 feet AGL
Clouds: broken clouds at 600 feet AGL
Weather: no significant weather forecast for this period